Time;durP1;ratioP1;P1;durP2;ratioP2;P2;SDS_P1;SDS_P2;PMS_P1;PMS_P2;Temp;Humidity;BMP_temperature;BMP_pressure;BME280_temperature;BME280_humidity;BME280_pressure;Samples;Min_cycle;Max_cycle;Signal;HPM_P1;HPM_P2
2023/12/13 00:01:48;;;;;;;79.90;29.45;;;7.30;99.90;;;;;;6245300;23;20012;-78
2023/12/13 00:04:14;;;;;;;78.45;27.98;;;7.30;99.90;;;;;;6245283;23;20023;-78
2023/12/13 00:06:42;;;;;;;77.60;26.95;;;7.30;99.90;;;;;;6246743;23;20020;-78
2023/12/13 00:09:08;;;;;;;77.97;27.45;;;7.30;99.90;;;;;;6244943;23;20413;-78
2023/12/13 00:11:34;;;;;;;81.10;27.48;;;7.30;99.90;;;;;;6245080;23;20019;-78
2023/12/13 00:14:00;;;;;;;104.45;30.50;;;7.30;99.90;;;;;;6245069;23;20021;-78
2023/12/13 00:16:25;;;;;;;82.60;28.50;;;7.30;99.90;;;;;;6245126;22;20380;-78
2023/12/13 00:18:51;;;;;;;96.15;29.08;;;7.30;99.90;;;;;;6245124;23;20019;-78
2023/12/13 00:21:17;;;;;;;83.93;28.02;;;7.30;99.90;;;;;;6245142;23;20104;-78
2023/12/13 00:23:44;;;;;;;78.25;27.05;;;7.30;99.90;;;;;;6245158;23;20436;-78
2023/12/13 00:26:16;;;;;;;86.53;26.70;;;7.30;99.90;;;;;;6245009;23;20016;-78
2023/12/13 00:28:43;;;;;;;86.35;28.98;;;7.30;99.90;;;;;;6245135;23;20051;-78
2023/12/13 00:31:12;;;;;;;89.82;28.77;;;7.30;99.90;;;;;;6244727;23;20016;-78
2023/12/13 00:33:38;;;;;;;84.45;28.23;;;7.30;99.90;;;;;;6244931;23;20028;-78
2023/12/13 00:36:05;;;;;;;81.30;28.35;;;7.30;99.90;;;;;;6244763;23;20134;-78
2023/12/13 00:38:31;;;;;;;78.82;26.55;;;7.40;99.90;;;;;;6245013;23;20026;-78
2023/12/13 00:40:56;;;;;;;74.45;25.70;;;7.30;99.90;;;;;;6244889;23;20091;-78
2023/12/13 00:43:22;;;;;;;85.25;27.45;;;7.30;99.90;;;;;;6244866;23;20024;-78
2023/12/13 00:45:48;;;;;;;80.22;27.15;;;7.30;99.90;;;;;;6244957;23;20024;-78
2023/12/13 00:48:14;;;;;;;84.18;27.50;;;7.30;99.90;;;;;;6244916;23;20019;-78
2023/12/13 00:50:40;;;;;;;84.32;27.65;;;7.30;99.90;;;;;;6245279;23;20020;-78
2023/12/13 00:53:06;;;;;;;72.55;26.50;;;7.40;99.90;;;;;;6244799;23;20017;-78
2023/12/13 00:55:32;;;;;;;76.45;25.08;;;7.40;99.90;;;;;;6244914;23;20458;-78
2023/12/13 00:57:58;;;;;;;82.15;26.63;;;7.40;99.90;;;;;;6244866;23;20055;-77
2023/12/13 01:00:23;;;;;;;72.88;25.60;;;7.40;99.90;;;;;;6244701;23;20066;-78
2023/12/13 01:02:49;;;;;;;83.82;26.40;;;7.30;99.90;;;;;;6244774;23;20012;-78
2023/12/13 01:05:15;;;;;;;76.25;25.58;;;7.40;99.90;;;;;;6246231;23;20020;-78
2023/12/13 01:07:40;;;;;;;82.22;25.73;;;7.40;99.90;;;;;;6244757;23;20024;-78
2023/12/13 01:10:07;;;;;;;78.63;26.52;;;7.40;99.90;;;;;;6244790;23;20024;-78
2023/12/13 01:12:32;;;;;;;75.05;24.70;;;7.40;99.90;;;;;;6244719;23;20020;-78
2023/12/13 01:14:58;;;;;;;78.15;26.58;;;7.40;99.90;;;;;;6244742;23;20071;-78
2023/12/13 01:17:24;;;;;;;73.50;24.92;;;7.40;99.90;;;;;;6244628;23;20066;-78
2023/12/13 01:19:51;;;;;;;65.32;23.73;;;7.40;99.90;;;;;;6244676;23;20048;-78
2023/12/13 01:22:20;;;;;;;74.60;25.63;;;7.40;99.90;;;;;;6245828;23;20083;-78
2023/12/13 01:24:46;;;;;;;74.82;25.27;;;7.40;99.90;;;;;;6246918;23;20091;-78
2023/12/13 01:27:12;;;;;;;82.90;24.77;;;7.40;99.90;;;;;;6248733;22;20329;-78
2023/12/13 01:29:40;;;;;;;70.93;24.42;;;7.40;99.90;;;;;;6246759;23;20325;-78
2023/12/13 01:32:06;;;;;;;73.03;24.05;;;7.30;99.90;;;;;;6246754;23;20024;-78
2023/12/13 01:34:32;;;;;;;70.53;23.05;;;7.30;99.90;;;;;;6246875;23;20050;-78
2023/12/13 01:36:58;;;;;;;64.78;22.73;;;7.30;99.90;;;;;;6246569;23;20038;-78
2023/12/13 01:39:23;;;;;;;70.47;22.15;;;7.30;99.90;;;;;;6246624;23;20019;-78
2023/12/13 01:41:49;;;;;;;67.15;21.52;;;7.30;99.90;;;;;;6246629;23;20086;-78
2023/12/13 01:44:15;;;;;;;62.65;21.42;;;7.30;99.90;;;;;;6246382;23;20463;-78
2023/12/13 01:46:41;;;;;;;54.40;21.02;;;7.30;99.90;;;;;;6246461;23;20016;-78
2023/12/13 01:49:08;;;;;;;61.00;20.58;;;7.30;99.90;;;;;;6246583;23;20016;-78
2023/12/13 01:51:35;;;;;;;65.03;21.98;;;7.30;99.90;;;;;;6246654;23;20020;-78
2023/12/13 01:54:08;;;;;;;57.67;19.58;;;7.30;99.90;;;;;;6246450;23;20087;-78
2023/12/13 01:56:34;;;;;;;62.00;21.13;;;7.30;99.90;;;;;;6246558;23;20016;-78
2023/12/13 01:59:00;;;;;;;61.00;19.92;;;7.30;99.90;;;;;;6246483;23;20466;-78
2023/12/13 02:01:26;;;;;;;66.05;21.30;;;7.20;99.90;;;;;;6246575;23;20020;-78
2023/12/13 02:03:52;;;;;;;58.38;20.75;;;7.30;99.90;;;;;;6246459;23;20016;-78
2023/12/13 02:06:19;;;;;;;57.78;20.15;;;7.30;99.90;;;;;;6246433;23;20432;-78
2023/12/13 02:08:45;;;;;;;61.00;20.00;;;7.30;99.90;;;;;;6246487;23;20020;-78
2023/12/13 02:11:10;;;;;;;70.03;20.52;;;7.30;99.90;;;;;;6246403;23;20010;-78
2023/12/13 02:13:36;;;;;;;60.53;19.42;;;7.30;99.90;;;;;;6246073;23;20024;-78
2023/12/13 02:16:02;;;;;;;67.55;20.88;;;7.30;99.90;;;;;;6246369;23;20020;-78
2023/12/13 02:18:28;;;;;;;63.50;18.95;;;7.30;99.90;;;;;;6246183;23;20512;-78
2023/12/13 02:20:54;;;;;;;59.28;19.20;;;7.30;99.90;;;;;;6246246;23;20063;-78
2023/12/13 02:23:19;;;;;;;58.53;19.48;;;7.30;99.90;;;;;;6246286;23;20433;-78
2023/12/13 02:25:52;;;;;;;57.78;18.98;;;7.30;99.90;;;;;;6247744;23;20027;-78
2023/12/13 02:28:18;;;;;;;54.33;17.73;;;7.30;99.90;;;;;;6246224;23;20048;-78
2023/12/13 02:30:46;;;;;;;63.33;19.25;;;7.30;99.90;;;;;;6245957;23;20027;-78
2023/12/13 02:33:12;;;;;;;51.92;18.15;;;7.30;99.90;;;;;;6245854;23;20024;-78
2023/12/13 02:35:37;;;;;;;61.72;19.73;;;7.40;99.90;;;;;;6246171;23;20336;-78
2023/12/13 02:38:03;;;;;;;57.67;18.23;;;7.40;99.90;;;;;;6247879;23;20020;-78
2023/12/13 02:40:29;;;;;;;57.45;18.33;;;7.40;99.90;;;;;;6246094;23;20012;-78
2023/12/13 02:42:55;;;;;;;52.80;17.90;;;7.40;99.90;;;;;;6246113;23;20020;-78
2023/12/13 02:45:21;;;;;;;57.47;18.05;;;7.40;99.90;;;;;;6245884;23;20339;-78
2023/12/13 02:47:49;;;;;;;53.67;17.95;;;7.30;99.90;;;;;;6246091;23;20016;-78
2023/12/13 02:50:15;;;;;;;55.13;17.58;;;7.30;99.90;;;;;;6246106;23;20020;-78
2023/12/13 02:52:41;;;;;;;53.33;17.50;;;7.40;99.90;;;;;;6247923;23;20009;-78
2023/12/13 02:55:09;;;;;;;61.22;18.13;;;7.40;99.90;;;;;;6247439;22;20444;-78
2023/12/13 02:57:35;;;;;;;52.45;17.73;;;7.30;99.90;;;;;;6247855;22;20100;-77
2023/12/13 03:00:03;;;;;;;56.58;18.55;;;7.40;99.90;;;;;;6245965;23;20436;-78
2023/12/13 03:02:29;;;;;;;51.40;16.52;;;7.40;99.90;;;;;;6245900;23;20012;-78
2023/12/13 03:04:54;;;;;;;51.78;17.65;;;7.40;99.90;;;;;;6245783;23;20358;-78
2023/12/13 03:07:21;;;;;;;55.30;18.05;;;7.40;99.90;;;;;;6245890;23;20023;-77
2023/12/13 03:09:47;;;;;;;53.78;16.55;;;7.40;99.90;;;;;;6247375;22;20030;-78
2023/12/13 03:12:13;;;;;;;52.50;17.50;;;7.40;99.90;;;;;;6245688;23;20091;-78
2023/12/13 03:14:38;;;;;;;50.67;17.35;;;7.40;99.90;;;;;;6245674;23;20070;-77
2023/12/13 03:17:04;;;;;;;48.05;15.95;;;7.40;99.90;;;;;;6245732;23;20012;-77
2023/12/13 03:19:30;;;;;;;47.45;15.98;;;7.40;99.90;;;;;;6235178;23;20024;-78
2023/12/13 03:21:55;;;;;;;53.88;16.58;;;7.40;99.90;;;;;;6215370;23;20468;-78
2023/12/13 03:24:21;;;;;;;43.75;16.15;;;7.40;99.90;;;;;;6215311;23;20445;-78
2023/12/13 03:26:46;;;;;;;43.50;14.82;;;7.30;99.90;;;;;;6215302;23;20013;-78
2023/12/13 03:29:12;;;;;;;45.47;16.63;;;7.40;99.90;;;;;;6215349;23;20016;-77
2023/12/13 03:31:38;;;;;;;46.28;17.13;;;7.30;99.90;;;;;;6215327;23;20017;-77
2023/12/13 03:34:04;;;;;;;45.95;16.33;;;7.40;99.90;;;;;;6215234;23;20021;-77
2023/12/13 03:36:29;;;;;;;44.65;15.68;;;7.40;99.90;;;;;;6215268;23;20024;-77
2023/12/13 03:38:55;;;;;;;40.42;14.35;;;7.40;99.90;;;;;;6215250;23;20019;-77
2023/12/13 03:41:21;;;;;;;47.58;14.50;;;7.40;99.90;;;;;;6215210;23;20311;-77
2023/12/13 03:43:46;;;;;;;53.05;16.02;;;7.40;99.90;;;;;;6214929;23;20043;-77
2023/12/13 03:46:12;;;;;;;50.25;15.55;;;7.40;99.90;;;;;;6216588;23;20025;-78
2023/12/13 03:48:38;;;;;;;45.22;16.23;;;7.40;99.90;;;;;;6216817;23;20024;-77
2023/12/13 03:51:06;;;;;;;48.08;15.07;;;7.40;99.90;;;;;;6215032;23;20078;-77
2023/12/13 03:53:32;;;;;;;45.03;15.15;;;7.40;99.90;;;;;;6215009;23;20074;-77
2023/12/13 03:55:59;;;;;;;47.10;15.15;;;7.40;99.90;;;;;;6214893;23;20039;-77
2023/12/13 03:58:24;;;;;;;51.55;14.93;;;7.40;99.90;;;;;;6215008;23;20012;-77
2023/12/13 04:00:50;;;;;;;45.50;15.15;;;7.40;99.90;;;;;;6214999;23;20352;-78
2023/12/13 04:03:16;;;;;;;50.40;15.98;;;7.40;99.90;;;;;;6214947;23;20018;-77
2023/12/13 04:05:42;;;;;;;57.75;16.08;;;7.40;99.90;;;;;;6215013;23;20103;-78
2023/12/13 04:08:08;;;;;;;51.55;14.95;;;7.40;99.90;;;;;;6214911;23;20023;-77
2023/12/13 04:10:34;;;;;;;47.08;15.15;;;7.40;99.90;;;;;;6216440;23;20032;-78
2023/12/13 04:12:59;;;;;;;50.17;15.57;;;7.40;99.90;;;;;;6214958;23;20023;-78
2023/12/13 04:15:25;;;;;;;48.85;15.98;;;7.40;99.90;;;;;;6214839;23;20025;-77
2023/12/13 04:17:51;;;;;;;71.55;17.40;;;7.40;99.90;;;;;;6214888;23;20043;-77
2023/12/13 04:20:16;;;;;;;51.10;16.15;;;7.40;99.90;;;;;;6214654;23;20415;-77
2023/12/13 04:22:43;;;;;;;53.15;16.08;;;7.30;99.90;;;;;;6214872;23;20021;-77
2023/12/13 04:25:09;;;;;;;52.80;15.85;;;7.40;99.90;;;;;;6214725;23;20047;-77
2023/12/13 04:27:35;;;;;;;60.42;18.17;;;7.40;99.90;;;;;;6214573;23;20017;-78
2023/12/13 04:30:01;;;;;;;57.10;17.60;;;7.40;99.90;;;;;;6214816;23;20440;-77
2023/12/13 04:32:26;;;;;;;48.80;15.32;;;7.40;99.90;;;;;;6214776;23;20131;-78
2023/12/13 04:34:52;;;;;;;67.65;17.73;;;7.40;99.90;;;;;;6214698;23;20039;-77
2023/12/13 04:37:19;;;;;;;62.92;17.48;;;7.40;99.90;;;;;;6214770;23;20115;-77
2023/12/13 04:39:45;;;;;;;51.60;16.88;;;7.40;99.90;;;;;;6214668;23;20024;-77
2023/12/13 04:42:11;;;;;;;65.05;18.60;;;7.40;99.90;;;;;;6214653;23;20048;-78
2023/12/13 04:44:37;;;;;;;59.20;17.35;;;7.40;99.90;;;;;;6214685;23;20020;-77
2023/12/13 04:47:03;;;;;;;53.45;18.17;;;7.40;99.90;;;;;;6214691;23;20009;-78
2023/12/13 04:49:28;;;;;;;67.75;18.35;;;7.40;99.90;;;;;;6214610;23;20017;-78
2023/12/13 04:51:54;;;;;;;57.53;19.00;;;7.40;99.90;;;;;;6214547;23;20025;-78
2023/12/13 04:54:20;;;;;;;58.40;17.63;;;7.40;99.90;;;;;;6214485;23;20532;-77
2023/12/13 04:56:45;;;;;;;54.13;18.63;;;7.40;99.90;;;;;;6214530;23;20012;-78
2023/12/13 04:59:11;;;;;;;63.85;18.80;;;7.40;99.90;;;;;;6214604;23;20091;-77
2023/12/13 05:01:37;;;;;;;65.15;18.55;;;7.40;99.90;;;;;;6216491;23;20013;-77
2023/12/13 05:04:02;;;;;;;54.13;17.90;;;7.40;99.90;;;;;;6214580;23;20048;-77
2023/12/13 05:06:28;;;;;;;64.75;19.55;;;7.40;99.90;;;;;;6216455;23;20020;-78
2023/12/13 05:08:54;;;;;;;60.58;19.00;;;7.40;99.90;;;;;;6214538;23;20031;-77
2023/12/13 05:11:19;;;;;;;57.90;18.48;;;7.40;99.90;;;;;;6214487;23;20021;-77
2023/12/13 05:13:45;;;;;;;52.22;18.58;;;7.40;99.90;;;;;;6214367;23;20012;-77
2023/12/13 05:16:11;;;;;;;57.33;18.30;;;7.40;99.90;;;;;;6214498;23;20016;-77
2023/12/13 05:18:37;;;;;;;51.80;18.85;;;7.40;99.90;;;;;;6214410;23;20449;-77
2023/12/13 05:21:03;;;;;;;62.60;18.52;;;7.40;99.90;;;;;;6214334;23;20024;-77
2023/12/13 05:23:29;;;;;;;63.97;19.30;;;7.40;99.90;;;;;;6214338;23;20063;-77
2023/12/13 05:25:54;;;;;;;55.45;18.05;;;7.40;99.90;;;;;;6214495;23;20021;-77
2023/12/13 05:28:20;;;;;;;69.60;19.58;;;7.40;99.90;;;;;;6214401;23;20095;-77
2023/12/13 05:30:46;;;;;;;66.45;20.08;;;7.40;99.90;;;;;;6214356;23;20013;-77
2023/12/13 05:33:12;;;;;;;57.53;18.60;;;7.40;99.90;;;;;;6214421;23;20027;-77
2023/12/13 05:35:38;;;;;;;59.08;19.35;;;7.40;99.90;;;;;;6214249;23;20013;-77
2023/12/13 05:38:04;;;;;;;66.53;19.13;;;7.40;99.90;;;;;;6214363;23;20017;-77
2023/12/13 05:40:31;;;;;;;54.13;18.60;;;7.40;99.90;;;;;;6214449;23;20063;-77
2023/12/13 05:42:58;;;;;;;56.35;18.27;;;7.40;99.90;;;;;;6214334;23;20055;-77
2023/12/13 05:45:23;;;;;;;70.75;19.58;;;7.40;99.90;;;;;;6214368;23;20453;-77
2023/12/13 05:47:49;;;;;;;50.35;17.33;;;7.40;99.90;;;;;;6214348;23;20025;-77
2023/12/13 05:50:16;;;;;;;70.38;21.88;;;7.40;99.90;;;;;;6214300;23;20020;-77
2023/12/13 05:52:42;;;;;;;59.15;19.83;;;7.40;99.90;;;;;;6214313;23;20017;-78
2023/12/13 05:55:08;;;;;;;71.75;19.83;;;7.40;99.90;;;;;;6216008;23;20028;-77
2023/12/13 05:57:33;;;;;;;62.63;20.08;;;7.40;99.90;;;;;;6215533;23;20099;-77
2023/12/13 05:59:59;;;;;;;64.65;19.65;;;7.40;99.90;;;;;;6214056;23;20044;-77
2023/12/13 06:02:25;;;;;;;64.45;19.80;;;7.40;99.90;;;;;;6214033;23;20017;-77
2023/12/13 06:04:53;;;;;;;62.78;19.05;;;7.40;99.90;;;;;;6213976;23;20066;-77
2023/12/13 06:07:19;;;;;;;57.42;18.10;;;7.40;99.90;;;;;;6214316;23;20024;-77
2023/12/13 06:09:44;;;;;;;53.15;19.15;;;7.40;99.90;;;;;;6216123;23;20017;-77
2023/12/13 06:12:11;;;;;;;56.00;19.55;;;7.40;99.90;;;;;;6217987;23;20016;-77
2023/12/13 06:14:40;;;;;;;51.97;20.08;;;7.40;99.90;;;;;;6215824;23;20019;-77
2023/12/13 06:17:05;;;;;;;65.88;20.23;;;7.40;99.90;;;;;;6215900;23;20092;-77
2023/12/13 06:19:32;;;;;;;72.35;21.88;;;7.40;99.90;;;;;;6215771;23;20055;-78
2023/12/13 06:21:59;;;;;;;56.30;20.70;;;7.40;99.90;;;;;;6215966;23;20074;-77
2023/12/13 06:24:25;;;;;;;57.85;20.52;;;7.40;99.90;;;;;;6215927;23;20036;-77
2023/12/13 06:26:50;;;;;;;57.10;19.08;;;7.40;99.90;;;;;;6215935;23;20016;-77
2023/12/13 06:29:19;;;;;;;67.30;19.80;;;7.40;99.90;;;;;;6216023;23;20078;-77
2023/12/13 06:31:44;;;;;;;66.70;20.63;;;7.50;99.90;;;;;;6215946;23;20020;-77
2023/12/13 06:34:10;;;;;;;57.47;20.75;;;7.40;99.90;;;;;;6215589;23;20019;-78
2023/12/13 06:36:36;;;;;;;61.13;21.73;;;7.40;99.90;;;;;;6215852;23;20016;-77
2023/12/13 06:39:04;;;;;;;59.03;20.55;;;7.50;99.90;;;;;;6215682;23;20016;-78
2023/12/13 06:41:30;;;;;;;59.03;20.00;;;7.40;99.90;;;;;;6215673;23;20021;-77
2023/12/13 06:43:56;;;;;;;55.67;19.77;;;7.40;99.90;;;;;;6216143;23;20433;-77
2023/12/13 06:46:23;;;;;;;53.53;19.67;;;7.50;99.90;;;;;;6215653;23;20040;-78
2023/12/13 06:48:49;;;;;;;51.95;20.58;;;7.50;99.90;;;;;;6215654;23;20059;-78
2023/12/13 06:51:15;;;;;;;52.20;19.60;;;7.40;99.90;;;;;;6215719;23;20062;-78
2023/12/13 06:53:40;;;;;;;53.60;20.25;;;7.40;99.90;;;;;;6215595;23;20016;-78
2023/12/13 06:56:06;;;;;;;56.65;21.10;;;7.40;99.90;;;;;;6215692;23;20016;-78
2023/12/13 06:58:34;;;;;;;58.38;20.45;;;7.40;99.90;;;;;;6215612;23;20024;-77
2023/12/13 07:01:01;;;;;;;51.45;19.42;;;7.40;99.90;;;;;;6215716;23;20106;-77
2023/12/13 07:03:26;;;;;;;50.22;19.42;;;7.40;99.90;;;;;;6215553;23;20063;-77
2023/12/13 07:05:53;;;;;;;52.92;19.92;;;7.40;99.90;;;;;;6215612;23;20016;-78
2023/12/13 07:08:19;;;;;;;60.05;20.75;;;7.50;99.90;;;;;;6215526;23;20060;-78
2023/12/13 07:10:44;;;;;;;65.03;21.35;;;7.40;99.90;;;;;;6215476;23;20031;-77
2023/12/13 07:13:13;;;;;;;55.95;20.58;;;7.40;99.90;;;;;;6215565;23;20456;-78
2023/12/13 07:15:38;;;;;;;60.03;20.55;;;7.40;99.90;;;;;;6215475;23;20025;-78
2023/12/13 07:18:04;;;;;;;61.95;20.52;;;7.40;99.90;;;;;;6216889;23;20550;-78
2023/12/13 07:20:31;;;;;;;72.57;21.75;;;7.40;99.90;;;;;;6215203;23;20027;-78
2023/12/13 07:22:58;;;;;;;67.47;22.05;;;7.40;99.90;;;;;;6215350;23;20025;-77
2023/12/13 07:25:24;;;;;;;60.97;21.23;;;7.40;99.90;;;;;;6215281;23;20024;-77
2023/12/13 07:27:49;;;;;;;61.67;20.23;;;7.50;99.90;;;;;;6215365;23;20024;-77
2023/12/13 07:30:15;;;;;;;67.85;21.08;;;7.40;99.90;;;;;;6215276;23;20021;-77
2023/12/13 07:32:41;;;;;;;69.78;21.75;;;7.40;99.90;;;;;;6215195;23;20020;-77
2023/12/13 07:35:08;;;;;;;58.97;19.73;;;7.40;99.90;;;;;;6215122;23;20495;-77
2023/12/13 07:37:35;;;;;;;59.53;21.25;;;7.40;99.90;;;;;;6215290;23;20380;-78
2023/12/13 07:40:03;;;;;;;60.53;21.48;;;7.40;99.90;;;;;;6215235;23;20087;-78
2023/12/13 07:42:28;;;;;;;62.28;21.70;;;7.40;99.90;;;;;;6215177;23;20403;-78
2023/12/13 07:44:54;;;;;;;62.45;22.45;;;7.40;99.90;;;;;;6215208;23;20059;-78
2023/12/13 07:47:20;;;;;;;67.72;21.70;;;7.40;99.90;;;;;;6215178;23;20016;-78
2023/12/13 07:49:45;;;;;;;63.10;21.33;;;7.40;99.90;;;;;;6215114;23;20345;-78
2023/12/13 07:52:12;;;;;;;65.53;21.67;;;7.40;99.90;;;;;;6215105;23;20070;-78
2023/12/13 07:54:37;;;;;;;61.45;21.10;;;7.40;99.90;;;;;;6214861;23;20017;-78
2023/12/13 07:57:03;;;;;;;76.15;22.58;;;7.40;99.90;;;;;;6214146;23;20109;-78
2023/12/13 07:59:29;;;;;;;55.72;21.67;;;7.40;99.90;;;;;;6216655;23;20023;-78
2023/12/13 08:01:54;;;;;;;61.90;22.17;;;7.40;99.90;;;;;;6214834;23;20027;-79
2023/12/13 08:04:20;;;;;;;71.38;22.25;;;7.40;99.90;;;;;;6214911;23;20071;-77
2023/12/13 08:06:46;;;;;;;74.68;22.95;;;7.40;99.90;;;;;;6214791;23;20020;-78
2023/12/13 08:09:11;;;;;;;65.03;22.15;;;7.40;99.90;;;;;;6216741;23;20426;-78
2023/12/13 08:11:38;;;;;;;66.63;22.45;;;7.40;99.90;;;;;;6214833;23;20322;-77
2023/12/13 08:14:04;;;;;;;68.65;22.38;;;7.40;99.90;;;;;;6214753;23;20016;-79
2023/12/13 08:16:29;;;;;;;78.78;24.02;;;7.40;99.90;;;;;;6213896;23;20018;-80
2023/12/13 08:18:55;;;;;;;63.10;21.83;;;7.40;99.90;;;;;;6214278;23;20091;-77
2023/12/13 08:21:23;;;;;;;64.78;21.20;;;7.40;99.90;;;;;;6214388;23;20044;-78
2023/12/13 08:23:49;;;;;;;67.07;22.13;;;7.50;99.90;;;;;;6214429;23;20032;-79
2023/12/13 08:26:15;;;;;;;75.97;21.42;;;7.40;99.90;;;;;;6214356;23;20021;-79
2023/12/13 08:28:42;;;;;;;58.92;22.55;;;7.40;99.90;;;;;;6214278;23;20024;-79
2023/12/13 08:31:08;;;;;;;64.07;21.38;;;7.40;99.90;;;;;;6215785;23;20024;-79
2023/12/13 08:33:34;;;;;;;57.97;20.95;;;7.50;99.90;;;;;;6214347;23;20587;-78
2023/12/13 08:36:00;;;;;;;61.75;22.33;;;7.40;99.90;;;;;;6214394;23;20021;-78
2023/12/13 08:38:26;;;;;;;56.83;21.90;;;7.50;99.90;;;;;;6214436;23;20016;-78
2023/12/13 08:40:52;;;;;;;69.03;22.20;;;7.50;99.90;;;;;;6214375;23;20035;-78
2023/12/13 08:43:18;;;;;;;63.42;22.98;;;7.50;99.90;;;;;;6214256;23;20333;-78
2023/12/13 08:45:43;;;;;;;63.25;21.98;;;7.50;99.90;;;;;;6214395;23;20028;-78
2023/12/13 08:48:09;;;;;;;62.25;23.08;;;7.50;99.90;;;;;;6214327;23;20028;-80
2023/12/13 08:50:34;;;;;;;67.82;23.50;;;7.50;99.90;;;;;;6214278;23;20024;-79
2023/12/13 08:53:00;;;;;;;59.88;21.23;;;7.50;99.90;;;;;;6214107;23;20024;-80
2023/12/13 08:55:26;;;;;;;70.75;23.10;;;7.50;99.90;;;;;;6214067;23;20111;-79
2023/12/13 08:57:51;;;;;;;63.42;22.42;;;7.50;99.90;;;;;;6214320;23;20019;-78
2023/12/13 09:00:17;;;;;;;61.15;22.00;;;7.50;99.90;;;;;;6214007;23;20066;-80
2023/12/13 09:02:43;;;;;;;58.17;21.30;;;7.50;99.90;;;;;;6214667;23;20100;-80
2023/12/13 09:05:08;;;;;;;59.47;22.35;;;7.60;99.90;;;;;;6214463;23;20017;-79
2023/12/13 09:07:34;;;;;;;65.03;23.15;;;7.60;99.90;;;;;;6214296;23;20395;-78
2023/12/13 09:10:00;;;;;;;70.55;22.73;;;7.60;99.90;;;;;;6214195;23;20050;-79
2023/12/13 09:12:25;;;;;;;65.03;22.63;;;7.60;99.90;;;;;;6214193;23;20012;-79
2023/12/13 09:14:51;;;;;;;68.53;22.33;;;7.60;99.90;;;;;;6213993;23;20444;-79
2023/12/13 09:17:17;;;;;;;69.45;22.08;;;7.60;99.90;;;;;;6215567;23;20384;-80
2023/12/13 09:19:43;;;;;;;71.88;24.85;;;7.60;99.90;;;;;;6213959;23;20453;-80
2023/12/13 09:22:09;;;;;;;73.47;22.10;;;7.60;99.90;;;;;;6214288;23;20062;-79
2023/12/13 09:24:34;;;;;;;64.45;21.52;;;7.60;99.90;;;;;;6214014;23;20020;-79
2023/12/13 09:27:00;;;;;;;68.55;23.50;;;7.70;99.90;;;;;;6214052;23;20066;-79
2023/12/13 09:29:26;;;;;;;64.32;22.52;;;7.70;99.90;;;;;;6214038;23;20479;-80
2023/12/13 09:31:51;;;;;;;70.25;23.55;;;7.70;99.90;;;;;;6214096;23;20425;-80
2023/12/13 09:34:17;;;;;;;62.53;22.95;;;7.70;99.90;;;;;;6214021;23;20357;-79
2023/12/13 09:36:43;;;;;;;74.05;23.20;;;7.60;99.90;;;;;;6215400;23;20021;-79
2023/12/13 09:39:09;;;;;;;65.45;22.80;;;7.70;99.90;;;;;;6213946;23;20017;-79
2023/12/13 09:42:02;;;;;;;70.40;22.83;;;7.70;99.90;;;;;;6213948;23;20031;-79
2023/12/13 09:44:29;;;;;;;60.75;21.85;;;7.70;99.90;;;;;;6216040;23;20082;-79
2023/12/13 09:46:58;;;;;;;63.85;22.20;;;7.80;99.90;;;;;;6215851;23;20103;-79
2023/12/13 09:49:25;;;;;;;59.55;21.02;;;7.70;99.90;;;;;;6215964;23;20059;-79
2023/12/13 09:51:52;;;;;;;65.15;23.30;;;7.70;99.90;;;;;;6215944;23;20017;-80
2023/12/13 09:54:18;;;;;;;64.90;22.02;;;7.80;99.90;;;;;;6215739;23;20025;-79
2023/12/13 09:56:44;;;;;;;64.65;21.75;;;7.80;99.90;;;;;;6215957;23;20059;-79
2023/12/13 09:59:10;;;;;;;58.55;20.15;;;7.80;99.90;;;;;;6215886;23;20024;-79
2023/12/13 10:01:36;;;;;;;59.22;21.65;;;7.80;99.90;;;;;;6215782;23;20091;-79
2023/12/13 10:04:03;;;;;;;62.65;23.13;;;7.80;99.90;;;;;;6215891;23;20044;-79
2023/12/13 10:06:29;;;;;;;63.05;22.42;;;7.90;99.90;;;;;;6215738;23;20016;-79
2023/12/13 10:08:56;;;;;;;70.68;23.52;;;7.90;99.90;;;;;;6215702;23;20173;-79
2023/12/13 10:11:23;;;;;;;75.18;23.63;;;7.90;99.90;;;;;;6215681;23;20024;-79
2023/12/13 10:13:49;;;;;;;71.63;25.17;;;7.90;99.90;;;;;;6215679;23;20016;-80
2023/12/13 10:16:15;;;;;;;74.68;25.92;;;7.90;99.90;;;;;;6215688;23;20035;-81
2023/12/13 10:18:41;;;;;;;78.43;24.40;;;7.90;99.90;;;;;;6215254;23;20344;-81
2023/12/13 10:21:10;;;;;;;100.50;27.80;;;7.80;99.90;;;;;;6215528;23;20576;-79
2023/12/13 10:23:36;;;;;;;80.80;26.40;;;7.80;99.90;;;;;;6215521;23;20839;-80
2023/12/13 10:26:06;;;;;;;98.05;27.05;;;7.70;99.90;;;;;;6216005;23;20043;-79
2023/12/13 10:28:35;;;;;;;83.60;26.48;;;7.70;99.90;;;;;;6215584;23;20078;-79
2023/12/13 10:31:02;;;;;;;93.95;26.95;;;7.70;99.90;;;;;;6215621;23;20013;-79
2023/12/13 10:33:28;;;;;;;116.63;30.08;;;7.60;99.90;;;;;;6215829;23;20016;-80
2023/12/13 10:35:56;;;;;;;103.60;29.17;;;7.60;99.90;;;;;;6215466;23;20032;-79
2023/12/13 10:38:26;;;;;;;161.38;34.05;;;7.50;99.90;;;;;;6215490;23;20025;-79
2023/12/13 10:40:52;;;;;;;101.53;29.70;;;7.50;99.90;;;;;;6215615;23;20025;-79
2023/12/13 10:43:20;;;;;;;155.65;33.70;;;7.40;99.90;;;;;;6216924;23;20031;-80
2023/12/13 10:46:00;;;;;;;121.90;32.53;;;7.40;99.90;;;;;;6215488;23;20445;-80
2023/12/13 10:48:32;;;;;;;111.57;30.38;;;7.30;99.90;;;;;;6215153;23;20013;-79
2023/12/13 10:50:59;;;;;;;122.68;31.40;;;7.30;99.90;;;;;;6215387;23;20099;-79
2023/12/13 10:53:25;;;;;;;112.03;30.20;;;7.30;99.90;;;;;;6215144;23;20056;-79
2023/12/13 10:55:51;;;;;;;112.85;29.45;;;7.30;99.90;;;;;;6215257;23;20020;-80
2023/12/13 10:58:19;;;;;;;91.00;27.92;;;7.30;99.90;;;;;;6215232;23;20071;-80
2023/12/13 11:00:46;;;;;;;130.00;27.48;;;7.30;99.90;;;;;;6217297;23;20186;-81
2023/12/13 11:03:18;;;;;;;103.18;24.80;;;7.30;99.90;;;;;;6215145;23;20116;-80
2023/12/13 11:05:44;;;;;;;111.47;23.40;;;7.30;99.90;;;;;;6215244;23;20028;-80
2023/12/13 11:08:15;;;;;;;90.78;22.00;;;7.30;99.90;;;;;;6215199;23;20337;-82
2023/12/13 11:10:41;;;;;;;97.07;20.85;;;7.20;99.90;;;;;;6215223;23;20017;-79
2023/12/13 11:13:06;;;;;;;92.55;22.05;;;7.30;99.90;;;;;;6215222;23;20120;-79
2023/12/13 11:15:43;;;;;;;70.97;19.60;;;7.20;99.90;;;;;;6215024;23;20077;-79
2023/12/13 11:18:10;;;;;;;95.85;20.98;;;7.20;99.90;;;;;;6215154;23;20019;-78
2023/12/13 11:20:47;;;;;;;62.25;17.63;;;7.20;99.90;;;;;;6214883;23;20035;-78
2023/12/13 11:23:14;;;;;;;85.60;18.88;;;7.10;99.90;;;;;;6215163;23;20017;-78
2023/12/13 11:25:40;;;;;;;67.57;18.10;;;7.00;99.90;;;;;;6215104;23;20019;-78
2023/12/13 11:28:05;;;;;;;54.85;16.50;;;7.00;99.90;;;;;;6214927;23;20400;-78
2023/12/13 11:30:32;;;;;;;73.50;19.13;;;7.10;99.90;;;;;;6215011;23;20024;-78
2023/12/13 11:32:57;;;;;;;56.03;15.77;;;7.00;99.90;;;;;;6214820;23;20071;-78
2023/12/13 11:35:24;;;;;;;55.70;16.48;;;7.10;99.90;;;;;;6214848;23;20024;-78
2023/12/13 11:37:51;;;;;;;64.53;16.08;;;7.20;99.90;;;;;;6215032;23;20020;-78
2023/12/13 11:40:18;;;;;;;42.50;15.20;;;7.10;99.90;;;;;;6214845;23;20024;-78
2023/12/13 11:42:44;;;;;;;55.00;16.17;;;7.20;99.90;;;;;;6214921;23;20016;-78
2023/12/13 11:45:10;;;;;;;44.58;13.00;;;7.20;99.90;;;;;;6214782;23;20031;-80
2023/12/13 11:47:37;;;;;;;66.82;16.98;;;7.20;99.90;;;;;;6214787;23;20048;-81
2023/12/13 11:50:03;;;;;;;38.70;12.90;;;7.10;99.90;;;;;;6214049;23;20027;-79
2023/12/13 11:52:28;;;;;;;46.38;14.48;;;7.10;99.90;;;;;;6214323;23;20012;-80
2023/12/13 11:54:56;;;;;;;42.85;13.40;;;7.10;99.90;;;;;;6216562;23;20314;-79
2023/12/13 11:57:22;;;;;;;34.63;12.45;;;7.10;99.90;;;;;;6214748;23;20463;-80
2023/12/13 11:59:48;;;;;;;41.53;12.77;;;7.10;99.90;;;;;;6214713;23;20449;-80
2023/12/13 12:02:19;;;;;;;40.60;13.40;;;7.10;99.90;;;;;;6214697;23;20051;-80
2023/12/13 12:04:45;;;;;;;39.58;11.80;;;7.10;99.90;;;;;;6214385;23;20028;-80
2023/12/13 12:07:15;;;;;;;31.38;11.45;;;7.00;99.90;;;;;;6214380;23;20020;-80
2023/12/13 12:09:44;;;;;;;31.35;11.82;;;7.10;99.90;;;;;;6214368;23;20028;-80
2023/12/13 12:12:10;;;;;;;33.55;11.57;;;7.00;99.90;;;;;;6214613;23;20013;-80
2023/12/13 12:14:36;;;;;;;27.73;10.98;;;7.00;99.90;;;;;;6214546;23;20408;-79
2023/12/13 12:17:01;;;;;;;25.67;10.77;;;7.00;99.90;;;;;;6214542;23;20013;-79
2023/12/13 12:19:30;;;;;;;24.27;9.77;;;6.90;99.90;;;;;;6214611;23;20077;-79
2023/12/13 12:22:00;;;;;;;18.02;8.10;;;6.90;99.90;;;;;;6214655;23;20345;-79
2023/12/13 12:24:28;;;;;;;19.92;7.97;;;6.90;99.90;;;;;;6213199;23;20021;-79
2023/12/13 12:27:05;;;;;;;21.40;9.48;;;6.90;99.90;;;;;;6214484;23;20048;-80
2023/12/13 12:29:31;;;;;;;19.75;9.35;;;6.90;99.90;;;;;;6214615;23;20349;-80
2023/12/13 12:31:57;;;;;;;20.50;9.40;;;6.80;99.90;;;;;;6214388;23;20012;-80